Time;durP1;ratioP1;P1;durP2;ratioP2;P2;SDS_P1;SDS_P2;PMS_P1;PMS_P2;Temp;Humidity;BMP_temperature;BMP_pressure;BME280_temperature;BME280_humidity;BME280_pressure;Samples;Min_cycle;Max_cycle;Signal;HPM_P1;HPM_P2
2023/10/15 00:00:52;;;;;;;2.83;1.60;;;17.90;96.90;;;;;;4956439;29;20362;-37
2023/10/15 00:03:17;;;;;;;2.88;1.30;;;17.90;96.90;;;;;;4956450;29;20103;-37
2023/10/15 00:05:43;;;;;;;4.78;1.50;;;17.90;96.80;;;;;;4956249;29;20393;-38
2023/10/15 00:08:09;;;;;;;4.50;1.73;;;18.00;97.20;;;;;;4956307;29;20397;-38
2023/10/15 00:10:36;;;;;;;4.93;1.30;;;17.90;96.80;;;;;;4956196;29;20042;-37
2023/10/15 00:13:04;;;;;;;4.35;1.60;;;17.90;96.80;;;;;;4956103;29;20493;-38
2023/10/15 00:15:30;;;;;;;5.82;1.52;;;17.90;96.70;;;;;;4956136;29;20492;-37
2023/10/15 00:17:59;;;;;;;3.47;1.10;;;17.90;96.80;;;;;;4956092;29;20070;-37
2023/10/15 00:20:40;;;;;;;3.38;1.50;;;17.90;96.70;;;;;;4956025;29;20019;-38
2023/10/15 00:23:06;;;;;;;3.60;1.30;;;17.90;96.70;;;;;;4956054;29;20027;-37
2023/10/15 00:25:37;;;;;;;3.78;1.42;;;17.90;96.70;;;;;;4955768;29;20033;-37
2023/10/15 00:28:05;;;;;;;4.85;1.40;;;17.90;96.60;;;;;;4955942;29;20556;-38
2023/10/15 00:30:32;;;;;;;3.33;1.60;;;17.90;96.60;;;;;;4955778;29;20481;-37
2023/10/15 00:32:59;;;;;;;4.95;1.27;;;17.90;96.70;;;;;;4955942;29;20400;-37
2023/10/15 00:35:27;;;;;;;3.35;1.40;;;17.90;96.60;;;;;;4955743;29;20489;-37
2023/10/15 00:37:54;;;;;;;2.85;1.35;;;17.90;96.70;;;;;;4956061;29;20038;-37
2023/10/15 00:40:25;;;;;;;3.22;1.20;;;17.90;96.60;;;;;;4954748;29;20043;-38
2023/10/15 00:42:52;;;;;;;2.30;1.17;;;17.90;96.70;;;;;;4954606;29;20465;-37
2023/10/15 00:45:18;;;;;;;3.47;1.40;;;17.90;96.60;;;;;;4954574;29;20041;-37
2023/10/15 00:48:22;;;;;;;3.00;1.63;;;17.90;96.60;;;;;;4954534;29;20059;-38
2023/10/15 00:50:41;;;;;;;3.07;1.20;;;17.90;96.50;;;;;;4952121;29;20043;-37
2023/10/15 00:53:25;;;;;;;4.95;1.17;;;17.90;96.50;;;;;;4954581;29;20206;-37
2023/10/15 00:55:52;;;;;;;3.95;1.20;;;17.90;96.50;;;;;;4954391;29;20020;-38
2023/10/15 00:58:22;;;;;;;3.70;1.42;;;17.90;96.50;;;;;;4954547;28;20474;-37
2023/10/15 01:03:17;;;;;;;3.15;1.30;;;17.90;96.50;;;;;;4954273;28;20035;-37
2023/10/15 01:05:53;;;;;;;3.47;1.30;;;17.90;96.50;;;;;;4954185;29;20543;-37
2023/10/15 01:08:25;;;;;;;2.40;1.20;;;17.90;96.50;;;;;;4954186;29;20034;-37
2023/10/15 01:11:08;;;;;;;2.10;1.10;;;17.90;96.50;;;;;;4954090;29;20512;-38
2023/10/15 01:13:35;;;;;;;4.90;1.40;;;17.90;96.50;;;;;;4936805;29;20027;-37
2023/10/15 01:16:03;;;;;;;2.42;1.30;;;17.90;96.50;;;;;;4953987;29;20593;-40
2023/10/15 01:18:29;;;;;;;3.95;1.63;;;17.90;96.50;;;;;;4954075;29;20030;-37
2023/10/15 01:20:55;;;;;;;4.05;1.33;;;17.90;96.60;;;;;;4936894;29;20400;-39
2023/10/15 01:23:32;;;;;;;2.72;1.25;;;17.90;96.50;;;;;;4954007;29;20031;-39
2023/10/15 01:26:09;;;;;;;2.17;1.08;;;17.90;96.50;;;;;;4953668;29;20023;-40
2023/10/15 01:28:38;;;;;;;4.97;1.40;;;17.90;96.50;;;;;;4954170;29;20027;-39
2023/10/15 01:31:06;;;;;;;3.00;1.30;;;17.90;96.50;;;;;;4953799;29;20163;-40
2023/10/15 01:33:46;;;;;;;3.00;1.67;;;17.90;96.50;;;;;;4953924;29;20154;-41
2023/10/15 01:36:16;;;;;;;3.42;1.20;;;17.90;96.50;;;;;;4953739;29;20131;-42
2023/10/15 01:38:44;;;;;;;3.58;1.40;;;17.90;96.50;;;;;;4913323;29;1183982;-35
2023/10/15 01:41:13;;;;;;;1.98;1.10;;;17.90;96.40;;;;;;4955323;29;20027;-36
2023/10/15 01:43:40;;;;;;;3.38;1.20;;;17.90;96.40;;;;;;4954626;29;20055;-35
2023/10/15 01:46:10;;;;;;;5.18;1.30;;;17.90;96.40;;;;;;4954231;29;20408;-36
2023/10/15 01:48:41;;;;;;;3.75;1.15;;;17.90;96.40;;;;;;4954498;29;20024;-36
2023/10/15 01:51:07;;;;;;;3.38;1.60;;;17.90;96.40;;;;;;4954337;29;20666;-35
2023/10/15 01:53:34;;;;;;;2.63;1.13;;;17.90;96.40;;;;;;4954528;29;20027;-35
2023/10/15 01:56:04;;;;;;;3.80;1.30;;;17.90;96.50;;;;;;4954315;29;20059;-35
2023/10/15 01:58:32;;;;;;;2.33;1.25;;;17.90;96.50;;;;;;4954357;29;20024;-36
2023/10/15 02:01:21;;;;;;;5.25;1.20;;;17.90;96.40;;;;;;4954274;29;20602;-34
2023/10/15 02:03:48;;;;;;;2.47;1.10;;;17.90;96.40;;;;;;4954323;29;20027;-37
2023/10/15 02:06:19;;;;;;;2.67;1.27;;;17.80;96.40;;;;;;4954024;29;20545;-35
2023/10/15 02:08:45;;;;;;;2.25;1.02;;;17.90;96.40;;;;;;4954040;29;20039;-37
2023/10/15 02:11:21;;;;;;;3.42;1.27;;;17.80;96.40;;;;;;4954311;29;20024;-38
2023/10/15 02:13:47;;;;;;;3.78;1.13;;;17.90;96.50;;;;;;4954304;29;20019;-35
2023/10/15 02:16:21;;;;;;;3.33;1.48;;;17.90;96.40;;;;;;4953467;28;20098;-37
2023/10/15 02:18:46;;;;;;;2.83;1.13;;;17.90;96.40;;;;;;4954123;29;20035;-35
2023/10/15 02:21:16;;;;;;;3.38;1.30;;;17.80;96.40;;;;;;4953901;29;20513;-36
2023/10/15 02:23:51;;;;;;;3.97;1.20;;;17.80;96.40;;;;;;4953956;29;20031;-37
2023/10/15 02:26:30;;;;;;;5.03;1.40;;;17.90;96.50;;;;;;4953564;29;20027;-34
2023/10/15 02:29:05;;;;;;;4.20;1.30;;;17.80;96.40;;;;;;4953997;29;20421;-37
2023/10/15 02:31:31;;;;;;;2.25;1.30;;;17.80;96.40;;;;;;4953975;29;20023;-39
2023/10/15 02:33:57;;;;;;;2.47;1.40;;;17.80;96.50;;;;;;4953804;29;20545;-39
2023/10/15 02:36:25;;;;;;;3.80;1.30;;;17.80;96.50;;;;;;4953636;29;20395;-41
2023/10/15 02:38:53;;;;;;;3.15;1.10;;;17.80;96.40;;;;;;4953322;29;20031;-39
2023/10/15 02:41:23;;;;;;;4.15;1.55;;;17.80;96.40;;;;;;4953589;29;20031;-40
2023/10/15 02:43:53;;;;;;;2.80;1.17;;;17.80;96.40;;;;;;4953718;29;20058;-39
2023/10/15 02:46:24;;;;;;;2.45;1.25;;;17.80;96.40;;;;;;4953380;29;20032;-39
2023/10/15 02:48:53;;;;;;;3.83;1.30;;;17.80;96.50;;;;;;4953475;29;20034;-37
2023/10/15 02:51:23;;;;;;;2.25;1.10;;;17.80;96.50;;;;;;4953285;29;20496;-39
2023/10/15 02:53:52;;;;;;;2.22;0.90;;;17.80;96.50;;;;;;4953389;29;20401;-39
2023/10/15 02:56:18;;;;;;;2.35;0.98;;;17.80;96.50;;;;;;4953172;29;20422;-41
2023/10/15 02:58:45;;;;;;;1.77;0.90;;;17.80;96.50;;;;;;4953401;29;20116;-40
2023/10/15 03:01:20;;;;;;;2.35;1.05;;;17.80;96.50;;;;;;4953530;29;20574;-42
2023/10/15 03:03:50;;;;;;;2.35;1.15;;;17.80;96.50;;;;;;4953266;29;20114;-39
2023/10/15 03:06:24;;;;;;;3.97;1.48;;;17.80;96.50;;;;;;4953624;29;20123;-39
2023/10/15 03:08:50;;;;;;;3.45;1.15;;;17.80;96.50;;;;;;4953259;29;20408;-42
2023/10/15 03:11:19;;;;;;;4.22;1.15;;;17.80;96.50;;;;;;4953143;29;20044;-39
2023/10/15 03:13:54;;;;;;;2.72;0.90;;;17.80;96.50;;;;;;4953241;29;20024;-39
2023/10/15 03:16:26;;;;;;;2.85;1.10;;;17.80;96.50;;;;;;4952949;29;20031;-38
2023/10/15 03:18:52;;;;;;;2.72;1.20;;;17.80;96.50;;;;;;4953210;29;20024;-40
2023/10/15 03:21:30;;;;;;;2.83;1.10;;;17.80;96.50;;;;;;4953193;29;20493;-41
2023/10/15 03:23:57;;;;;;;2.72;1.10;;;17.80;96.50;;;;;;4953288;29;20031;-40
2023/10/15 03:26:24;;;;;;;2.80;1.15;;;17.80;96.50;;;;;;4936091;28;20070;-40
2023/10/15 03:28:51;;;;;;;4.38;1.50;;;17.80;96.50;;;;;;4956232;29;20027;-43
2023/10/15 03:31:24;;;;;;;3.22;1.00;;;17.80;96.50;;;;;;4956925;29;20397;-42
2023/10/15 03:36:26;;;;;;;2.83;1.08;;;17.80;96.60;;;;;;4956831;29;20045;-38
2023/10/15 03:38:52;;;;;;;3.42;1.20;;;17.80;96.60;;;;;;4956723;28;20027;-41
2023/10/15 03:41:39;;;;;;;2.08;0.90;;;17.80;96.60;;;;;;4956757;29;20031;-39
2023/10/15 03:44:05;;;;;;;2.08;1.17;;;17.80;96.60;;;;;;4956814;29;20027;-39
2023/10/15 03:46:34;;;;;;;4.55;1.17;;;17.80;96.60;;;;;;4956612;29;20046;-42
2023/10/15 03:49:07;;;;;;;3.30;1.10;;;17.80;96.90;;;;;;4956595;29;20025;-41
2023/10/15 03:51:40;;;;;;;2.75;1.08;;;17.80;96.60;;;;;;4956706;29;20429;-44
2023/10/15 03:54:07;;;;;;;2.20;1.00;;;17.80;96.60;;;;;;4956623;29;20042;-42
2023/10/15 03:56:34;;;;;;;3.72;1.00;;;17.80;96.60;;;;;;4956406;29;20371;-41
2023/10/15 03:59:01;;;;;;;4.57;1.35;;;17.80;96.60;;;;;;4956483;29;20026;-41
2023/10/15 04:01:28;;;;;;;3.30;1.15;;;17.80;96.60;;;;;;4956466;29;20500;-35
2023/10/15 04:03:53;;;;;;;3.40;1.30;;;17.80;96.60;;;;;;4956495;29;20598;-35
2023/10/15 04:06:21;;;;;;;2.95;1.13;;;17.80;96.60;;;;;;4956153;29;20032;-34
2023/10/15 04:09:08;;;;;;;2.65;1.10;;;17.80;96.70;;;;;;4956276;29;20381;-36
2023/10/15 04:11:42;;;;;;;3.42;1.20;;;17.80;96.60;;;;;;4956506;29;20408;-35
2023/10/15 04:14:26;;;;;;;2.28;0.82;;;17.80;97.00;;;;;;4956347;29;20106;-34
2023/10/15 04:16:52;;;;;;;3.53;0.95;;;17.80;96.60;;;;;;4941310;29;20050;-34
2023/10/15 04:19:18;;;;;;;3.67;1.10;;;17.80;96.70;;;;;;4956139;29;20477;-34
2023/10/15 04:21:44;;;;;;;3.17;1.10;;;17.80;96.70;;;;;;4956464;29;20078;-36
2023/10/15 04:24:14;;;;;;;2.38;0.98;;;17.80;97.10;;;;;;4956077;29;20453;-37
2023/10/15 04:26:42;;;;;;;1.27;0.65;;;17.80;96.70;;;;;;4955974;29;20023;-35
2023/10/15 04:29:17;;;;;;;2.58;1.00;;;17.80;96.70;;;;;;4955783;29;20485;-35
2023/10/15 04:31:51;;;;;;;2.78;1.10;;;17.80;96.70;;;;;;4956174;29;20039;-36
2023/10/15 04:34:18;;;;;;;2.45;1.23;;;17.80;96.80;;;;;;4955946;29;20023;-36
2023/10/15 04:36:45;;;;;;;2.97;1.08;;;17.80;96.80;;;;;;4955746;29;20027;-36
2023/10/15 04:39:12;;;;;;;3.40;1.20;;;17.80;96.90;;;;;;4955240;28;20122;-35
2023/10/15 04:41:39;;;;;;;4.68;1.08;;;17.80;96.90;;;;;;4955749;29;20067;-35
2023/10/15 04:44:11;;;;;;;3.13;1.20;;;17.80;97.00;;;;;;4955715;29;20031;-35
2023/10/15 04:46:41;;;;;;;2.60;1.10;;;17.80;97.00;;;;;;4955677;29;20316;-35
2023/10/15 04:49:07;;;;;;;2.65;0.90;;;17.80;97.00;;;;;;4955508;29;20400;-35
2023/10/15 04:51:42;;;;;;;2.97;0.80;;;17.80;97.00;;;;;;4955561;29;20028;-38
2023/10/15 04:54:09;;;;;;;3.05;0.98;;;17.80;97.00;;;;;;4955487;29;20107;-35
2023/10/15 04:56:36;;;;;;;2.25;0.85;;;17.80;97.00;;;;;;4955346;29;20027;-35
2023/10/15 04:59:02;;;;;;;2.05;0.88;;;17.80;97.00;;;;;;4955415;29;20024;-36
2023/10/15 05:01:28;;;;;;;2.92;1.25;;;17.80;97.00;;;;;;4955413;29;20026;-36
2023/10/15 05:03:53;;;;;;;1.95;0.88;;;17.80;97.00;;;;;;4955367;29;20027;-38
2023/10/15 05:06:21;;;;;;;2.97;1.02;;;17.80;97.10;;;;;;4955152;29;20470;-34
2023/10/15 05:08:47;;;;;;;2.65;0.98;;;17.80;97.10;;;;;;4955165;29;20015;-36
2023/10/15 05:11:13;;;;;;;2.20;1.00;;;17.80;97.40;;;;;;4955053;29;20571;-35
2023/10/15 05:13:42;;;;;;;2.38;0.90;;;17.80;97.10;;;;;;4955243;29;20031;-35
2023/10/15 05:16:08;;;;;;;1.95;1.00;;;17.80;97.10;;;;;;4955327;29;20628;-34
2023/10/15 05:18:33;;;;;;;2.30;0.82;;;17.80;97.10;;;;;;4955156;29;20114;-36
2023/10/15 05:21:00;;;;;;;1.75;0.95;;;17.80;97.10;;;;;;4955069;29;20027;-35
2023/10/15 05:23:26;;;;;;;2.22;1.02;;;17.80;97.10;;;;;;4954874;29;20150;-37
2023/10/15 05:25:56;;;;;;;2.53;1.00;;;17.80;97.10;;;;;;4954861;29;20030;-37
2023/10/15 05:28:22;;;;;;;2.22;0.82;;;17.80;97.10;;;;;;4954914;29;20029;-35
2023/10/15 05:30:49;;;;;;;2.90;1.23;;;17.80;97.10;;;;;;4954738;29;20106;-35
2023/10/15 05:33:16;;;;;;;3.75;1.17;;;17.80;97.20;;;;;;4954814;29;20031;-36
2023/10/15 05:35:48;;;;;;;2.72;0.90;;;17.70;97.10;;;;;;4954841;29;20040;-35
2023/10/15 05:38:13;;;;;;;2.15;0.75;;;17.70;97.20;;;;;;4954808;29;20079;-34
2023/10/15 05:40:41;;;;;;;1.75;0.75;;;17.80;97.20;;;;;;4954656;29;20066;-35
2023/10/15 05:43:07;;;;;;;3.08;0.82;;;17.80;97.20;;;;;;4954691;29;20109;-36
2023/10/15 05:45:32;;;;;;;1.73;0.80;;;17.70;97.20;;;;;;4954526;29;20147;-34
2023/10/15 05:47:58;;;;;;;2.63;0.90;;;17.80;97.20;;;;;;4954552;29;20501;-35
2023/10/15 05:50:24;;;;;;;2.25;0.65;;;17.70;97.20;;;;;;4953587;28;20039;-35
2023/10/15 05:52:50;;;;;;;4.57;1.00;;;17.80;97.20;;;;;;4954476;29;20114;-35
2023/10/15 05:55:17;;;;;;;1.27;0.68;;;17.80;97.20;;;;;;4954364;29;20028;-36
2023/10/15 05:57:43;;;;;;;3.55;0.82;;;17.80;97.20;;;;;;4954389;29;20019;-34
2023/10/15 06:00:18;;;;;;;1.15;0.70;;;17.80;97.20;;;;;;4954343;29;20438;-34
2023/10/15 06:02:45;;;;;;;3.15;1.00;;;17.70;97.20;;;;;;4936968;29;20405;-35
2023/10/15 06:05:13;;;;;;;4.85;1.00;;;17.70;97.20;;;;;;4954005;29;20575;-35
2023/10/15 06:07:42;;;;;;;3.80;1.05;;;17.80;97.30;;;;;;4954175;29;20085;-34
2023/10/15 06:10:09;;;;;;;2.22;0.85;;;17.70;97.30;;;;;;4954170;29;20496;-35
2023/10/15 06:12:35;;;;;;;2.05;0.80;;;17.70;97.20;;;;;;4954095;29;20023;-35
2023/10/15 06:15:01;;;;;;;2.03;0.80;;;17.70;97.20;;;;;;4953960;29;20419;-34
2023/10/15 06:17:27;;;;;;;3.17;1.20;;;17.70;97.30;;;;;;4953945;29;20035;-35
2023/10/15 06:19:53;;;;;;;2.97;0.70;;;17.70;97.30;;;;;;4953836;29;20803;-35
2023/10/15 06:22:19;;;;;;;4.05;1.10;;;17.70;97.30;;;;;;4953975;29;20400;-34
2023/10/15 06:24:46;;;;;;;2.33;1.00;;;17.70;97.30;;;;;;4953873;29;20477;-34
2023/10/15 06:27:13;;;;;;;1.65;0.70;;;17.70;97.30;;;;;;4953821;29;20042;-35
2023/10/15 06:29:38;;;;;;;2.17;0.85;;;17.70;97.30;;;;;;4953727;29;20027;-35
2023/10/15 06:32:04;;;;;;;3.20;1.52;;;17.70;97.30;;;;;;4953708;29;20039;-36
2023/10/15 06:34:30;;;;;;;4.57;1.40;;;17.70;97.30;;;;;;4953616;29;20486;-34
2023/10/15 06:36:55;;;;;;;2.00;1.25;;;17.70;97.30;;;;;;4953896;29;20356;-35
2023/10/15 06:39:22;;;;;;;3.60;1.50;;;17.70;97.40;;;;;;4936236;29;20101;-35
2023/10/15 06:41:47;;;;;;;3.38;1.58;;;17.70;97.40;;;;;;4953769;29;20053;-35
2023/10/15 06:44:14;;;;;;;3.95;1.20;;;17.70;97.40;;;;;;4953616;29;20540;-35
2023/10/15 06:46:39;;;;;;;2.75;1.15;;;17.70;97.40;;;;;;4953379;29;20027;-35
2023/10/15 06:49:07;;;;;;;3.05;1.33;;;17.70;97.70;;;;;;4953408;29;20019;-35
2023/10/15 06:51:33;;;;;;;3.17;1.38;;;17.70;97.40;;;;;;4953480;29;19918;-36
2023/10/15 06:53:59;;;;;;;3.10;1.35;;;17.70;97.40;;;;;;4953540;29;20150;-35
2023/10/15 06:56:25;;;;;;;2.78;1.15;;;17.70;97.40;;;;;;4936221;29;20027;-35
2023/10/15 06:58:51;;;;;;;2.13;1.15;;;17.70;97.40;;;;;;4953455;29;20019;-35
2023/10/15 07:01:16;;;;;;;2.85;1.20;;;17.70;97.40;;;;;;4953212;28;20027;-38
2023/10/15 07:03:42;;;;;;;3.13;1.17;;;17.70;97.40;;;;;;4953323;29;20031;-34
2023/10/15 07:06:08;;;;;;;2.20;0.90;;;17.70;97.40;;;;;;4953334;29;20020;-35
2023/10/15 07:08:34;;;;;;;4.20;1.50;;;17.70;97.40;;;;;;4953302;29;20047;-35
2023/10/15 07:11:00;;;;;;;1.67;0.93;;;17.70;97.40;;;;;;4953215;29;20059;-34
2023/10/15 07:13:26;;;;;;;2.40;1.10;;;17.70;97.40;;;;;;4953353;29;20019;-35
2023/10/15 07:15:53;;;;;;;2.97;1.38;;;17.70;97.40;;;;;;4952931;29;20023;-36
2023/10/15 07:18:18;;;;;;;3.85;1.30;;;17.70;97.40;;;;;;4953173;29;20103;-35
2023/10/15 07:20:44;;;;;;;3.53;1.50;;;17.70;97.50;;;;;;4953150;29;20131;-35
2023/10/15 07:23:10;;;;;;;3.55;1.38;;;17.70;97.40;;;;;;4953153;29;20039;-36
2023/10/15 07:25:36;;;;;;;1.90;1.13;;;17.70;97.40;;;;;;4953148;29;20059;-35
2023/10/15 07:28:02;;;;;;;2.10;0.98;;;17.70;97.50;;;;;;4953051;29;20032;-37
2023/10/15 07:30:28;;;;;;;1.95;1.00;;;17.70;97.50;;;;;;4952967;29;20067;-39
2023/10/15 07:32:57;;;;;;;2.28;1.20;;;17.70;97.50;;;;;;4953005;29;20035;-40
2023/10/15 07:35:25;;;;;;;2.45;1.05;;;17.70;97.50;;;;;;4952940;29;20099;-35
2023/10/15 07:37:52;;;;;;;2.72;1.15;;;17.70;97.50;;;;;;4953346;29;20102;-35
2023/10/15 07:40:25;;;;;;;2.88;1.27;;;17.70;97.50;;;;;;4953461;29;20066;-37
2023/10/15 07:42:53;;;;;;;2.35;1.20;;;17.70;97.40;;;;;;4953073;29;20055;-39
2023/10/15 07:45:22;;;;;;;1.63;0.90;;;17.80;97.50;;;;;;4952851;29;20031;-37
2023/10/15 07:47:48;;;;;;;3.03;1.25;;;17.80;97.40;;;;;;4952855;29;20106;-37
2023/10/15 07:50:21;;;;;;;2.05;1.00;;;17.80;97.40;;;;;;4952804;29;20027;-37
2023/10/15 07:52:46;;;;;;;2.80;1.10;;;17.80;97.50;;;;;;4952925;29;20042;-37
2023/10/15 07:55:13;;;;;;;2.35;1.00;;;17.90;97.50;;;;;;4952812;29;20024;-38
2023/10/15 07:57:39;;;;;;;2.50;1.25;;;17.90;97.50;;;;;;4952681;29;20106;-38
2023/10/15 08:00:06;;;;;;;3.53;1.30;;;17.90;97.50;;;;;;4952784;29;20434;-37
2023/10/15 08:02:32;;;;;;;2.88;1.17;;;17.90;97.50;;;;;;4952919;29;20631;-38
2023/10/15 08:04:58;;;;;;;1.88;0.88;;;17.90;97.40;;;;;;4952742;29;20039;-37
2023/10/15 08:07:23;;;;;;;3.28;1.10;;;17.90;97.40;;;;;;4952713;29;20086;-38
2023/10/15 08:09:52;;;;;;;3.22;1.15;;;17.90;97.40;;;;;;4952673;29;20027;-39
2023/10/15 08:12:18;;;;;;;2.25;0.95;;;17.90;97.40;;;;;;4952572;29;20034;-37
2023/10/15 08:14:46;;;;;;;2.15;1.02;;;17.90;97.30;;;;;;4955375;28;20024;-39
2023/10/15 08:17:15;;;;;;;2.33;1.05;;;18.00;97.30;;;;;;4956154;29;20019;-37
2023/10/15 08:19:40;;;;;;;3.58;1.17;;;18.00;97.40;;;;;;4956175;29;20031;-37
2023/10/15 08:22:06;;;;;;;2.38;1.23;;;18.00;97.40;;;;;;4956157;29;20034;-37
2023/10/15 08:24:32;;;;;;;2.40;0.93;;;18.00;97.40;;;;;;4956026;29;20030;-38
2023/10/15 08:26:58;;;;;;;3.10;1.27;;;18.00;97.40;;;;;;4955833;29;20401;-39
2023/10/15 08:29:23;;;;;;;2.38;0.90;;;18.00;97.40;;;;;;4956084;29;20052;-38
2023/10/15 08:31:49;;;;;;;2.40;0.98;;;18.10;97.40;;;;;;4955935;29;20064;-38
2023/10/15 08:34:15;;;;;;;2.55;0.90;;;18.10;97.40;;;;;;4955852;29;20097;-37
2023/10/15 08:36:42;;;;;;;2.28;1.10;;;18.10;97.40;;;;;;4955867;29;20028;-37
2023/10/15 08:39:07;;;;;;;4.38;1.08;;;18.10;97.40;;;;;;4955731;29;20031;-38
2023/10/15 08:41:41;;;;;;;1.95;0.85;;;18.10;97.40;;;;;;4955688;29;20212;-38
2023/10/15 08:44:18;;;;;;;2.45;1.00;;;18.20;97.40;;;;;;4955833;29;20019;-38
2023/10/15 08:46:45;;;;;;;2.38;0.98;;;18.20;97.40;;;;;;4955838;29;20193;-40
2023/10/15 08:49:11;;;;;;;2.25;1.00;;;18.20;97.40;;;;;;4955541;29;20027;-38
2023/10/15 08:51:37;;;;;;;2.05;1.10;;;18.20;97.30;;;;;;4955579;29;20019;-41
2023/10/15 08:54:04;;;;;;;3.17;1.02;;;18.20;97.30;;;;;;4955494;29;20030;-39
2023/10/15 08:56:30;;;;;;;2.95;1.00;;;18.20;97.30;;;;;;4955486;29;20036;-38
2023/10/15 08:58:58;;;;;;;2.50;0.80;;;18.20;97.20;;;;;;4955463;29;20050;-38
2023/10/15 09:01:24;;;;;;;2.90;0.77;;;18.20;97.20;;;;;;4955470;29;20031;-37
2023/10/15 09:03:52;;;;;;;6.60;1.63;;;18.20;97.20;;;;;;4955873;29;20030;-37
2023/10/15 09:06:19;;;;;;;8.85;1.67;;;18.00;95.50;;;;;;4955696;29;20475;-37
2023/10/15 09:08:45;;;;;;;5.10;1.33;;;17.60;96.10;;;;;;4955536;29;20063;-37
2023/10/15 09:11:11;;;;;;;7.30;1.35;;;17.50;96.50;;;;;;4955334;29;20122;-38
2023/10/15 09:13:37;;;;;;;3.08;1.13;;;17.50;96.80;;;;;;4955474;29;20098;-38
2023/10/15 09:16:08;;;;;;;6.25;1.13;;;17.50;96.80;;;;;;4954945;29;20448;-37
2023/10/15 09:18:37;;;;;;;4.55;1.30;;;17.60;96.90;;;;;;4955139;29;20029;-37
2023/10/15 09:21:03;;;;;;;4.43;1.10;;;17.60;96.90;;;;;;4955016;29;20032;-37
2023/10/15 09:23:35;;;;;;;7.53;1.23;;;17.70;96.90;;;;;;4955028;29;20023;-37
2023/10/15 09:26:01;;;;;;;6.18;1.10;;;17.70;97.20;;;;;;4953707;28;20031;-37
2023/10/15 09:28:28;;;;;;;4.13;1.35;;;17.70;96.80;;;;;;4937580;29;20031;-37
2023/10/15 09:31:03;;;;;;;5.50;1.10;;;17.70;96.90;;;;;;4954808;29;20070;-37
2023/10/15 09:33:30;;;;;;;3.80;1.27;;;17.80;96.90;;;;;;4954816;29;20019;-37
2023/10/15 09:35:57;;;;;;;2.92;0.80;;;17.80;96.90;;;;;;4954648;29;20050;-39
2023/10/15 09:38:22;;;;;;;4.70;1.20;;;17.80;96.90;;;;;;4954638;29;20023;-37
2023/10/15 09:40:48;;;;;;;3.60;1.33;;;17.80;97.20;;;;;;4954768;29;20038;-37
2023/10/15 09:43:14;;;;;;;4.30;1.15;;;17.80;96.90;;;;;;4954750;29;20031;-37
2023/10/15 09:45:42;;;;;;;3.53;1.00;;;17.80;96.90;;;;;;4937551;29;20023;-37
2023/10/15 09:48:11;;;;;;;4.82;1.23;;;17.80;96.90;;;;;;4937173;29;20430;-37
2023/10/15 09:50:41;;;;;;;6.13;1.30;;;17.90;96.90;;;;;;4954400;29;20505;-41
2023/10/15 09:53:11;;;;;;;3.00;0.85;;;17.90;96.90;;;;;;4954916;29;20433;-37
2023/10/15 09:55:38;;;;;;;5.20;1.00;;;17.90;96.90;;;;;;4954667;29;20023;-37
2023/10/15 09:58:04;;;;;;;2.15;0.88;;;17.90;96.90;;;;;;4954373;29;20028;-38
2023/10/15 10:03:57;;;;;;;3.03;1.00;;;18.00;97.00;;;;;;4954647;29;20038;-37
2023/10/15 10:06:48;;;;;;;3.97;0.80;;;18.00;97.00;;;;;;4954325;29;20034;-38
2023/10/15 10:09:39;;;;;;;2.83;1.10;;;18.00;97.00;;;;;;4954339;29;20119;-37
2023/10/15 10:12:24;;;;;;;1.95;0.77;;;18.00;97.00;;;;;;4923940;29;20505;-38
2023/10/15 10:15:17;;;;;;;2.92;1.02;;;18.00;97.20;;;;;;4954124;29;20035;-37
2023/10/15 10:17:43;;;;;;;4.25;1.08;;;18.10;96.90;;;;;;4954030;29;20019;-36
2023/10/15 10:20:12;;;;;;;2.22;0.85;;;18.10;96.80;;;;;;4953951;29;20110;-37
2023/10/15 10:22:39;;;;;;;4.15;1.00;;;18.10;96.70;;;;;;4953899;29;20473;-37
2023/10/15 10:25:07;;;;;;;2.60;1.00;;;18.10;96.50;;;;;;4953865;29;20090;-39
2023/10/15 10:27:43;;;;;;;2.45;0.90;;;18.10;96.50;;;;;;4953777;29;20037;-37
2023/10/15 10:30:41;;;;;;;2.47;0.70;;;18.20;96.70;;;;;;4953761;29;20027;-36
2023/10/15 10:33:09;;;;;;;2.70;0.98;;;18.20;96.70;;;;;;4942412;29;20039;-37
2023/10/15 10:35:45;;;;;;;2.30;0.98;;;18.20;96.70;;;;;;4953581;28;20031;-36
2023/10/15 10:38:18;;;;;;;2.55;0.77;;;18.20;96.70;;;;;;4953458;29;20078;-37
2023/10/15 10:40:47;;;;;;;1.85;0.77;;;18.20;96.70;;;;;;4953744;29;20040;-37
2023/10/15 10:43:17;;;;;;;2.83;1.05;;;18.20;96.70;;;;;;4953753;29;20082;-37
2023/10/15 10:46:00;;;;;;;2.17;0.77;;;18.20;96.60;;;;;;4953568;29;20023;-37
2023/10/15 10:48:33;;;;;;;2.38;0.80;;;18.20;96.60;;;;;;4953487;29;20027;-37
2023/10/15 10:51:08;;;;;;;3.40;0.82;;;18.30;96.60;;;;;;4953606;29;20030;-37
2023/10/15 10:53:34;;;;;;;2.83;0.93;;;18.20;96.60;;;;;;4936345;29;20074;-37
2023/10/15 10:56:04;;;;;;;2.30;0.70;;;18.30;96.60;;;;;;4953636;28;20037;-37
2023/10/15 10:58:30;;;;;;;1.20;0.60;;;18.30;96.50;;;;;;4953319;29;20074;-38
2023/10/15 11:00:57;;;;;;;2.40;0.90;;;18.30;96.50;;;;;;4953254;29;20027;-37
2023/10/15 11:03:25;;;;;;;2.80;0.98;;;18.30;96.50;;;;;;4953448;29;20397;-38
2023/10/15 11:05:58;;;;;;;2.10;0.70;;;18.30;96.50;;;;;;4953260;29;20446;-37
2023/10/15 11:08:23;;;;;;;2.08;0.60;;;18.40;96.40;;;;;;4953277;29;20102;-37
2023/10/15 11:10:49;;;;;;;2.05;0.80;;;18.40;96.40;;;;;;4953627;29;20147;-37
2023/10/15 11:13:16;;;;;;;1.50;0.70;;;18.40;96.40;;;;;;4953267;29;20027;-37
2023/10/15 11:15:49;;;;;;;1.85;0.80;;;18.40;96.40;;;;;;4953166;29;20031;-37
2023/10/15 11:18:23;;;;;;;1.55;0.80;;;18.40;96.30;;;;;;4953098;29;20031;-37
2023/10/15 11:20:50;;;;;;;1.83;0.63;;;18.40;96.40;;;;;;4953342;29;20063;-36
2023/10/15 11:23:16;;;;;;;1.67;0.80;;;18.40;96.40;;;;;;4953231;29;20091;-37
2023/10/15 11:25:42;;;;;;;2.95;1.00;;;18.40;99.90;;;;;;4953138;29;20031;-38
2023/10/15 11:28:11;;;;;;;3.72;0.98;;;18.40;95.80;;;;;;4953001;29;20481;-38
2023/10/15 11:30:44;;;;;;;2.40;0.80;;;18.40;96.00;;;;;;4953082;29;20033;-37
2023/10/15 11:33:10;;;;;;;4.38;1.02;;;18.40;95.80;;;;;;4953110;29;20035;-37
2023/10/15 11:35:37;;;;;;;3.05;0.80;;;18.40;95.60;;;;;;4953008;29;20028;-37
2023/10/15 11:38:09;;;;;;;2.22;0.55;;;18.30;95.40;;;;;;4953050;29;20030;-41
2023/10/15 11:40:38;;;;;;;2.17;0.82;;;18.40;95.40;;;;;;4952742;29;20035;-38
2023/10/15 11:43:25;;;;;;;1.48;0.73;;;18.30;95.40;;;;;;4952988;29;20452;-37
2023/10/15 11:45:56;;;;;;;1.88;0.70;;;18.30;95.80;;;;;;4935672;29;20374;-38
2023/10/15 11:48:21;;;;;;;1.65;0.68;;;18.30;95.50;;;;;;4953725;28;20031;-37
2023/10/15 11:50:48;;;;;;;1.08;0.60;;;18.30;95.60;;;;;;4956596;29;20043;-37
2023/10/15 11:53:16;;;;;;;2.83;0.82;;;18.20;95.70;;;;;;4956690;29;20034;-38
2023/10/15 11:55:48;;;;;;;1.48;0.80;;;18.20;95.80;;;;;;4956654;29;20027;-38
2023/10/15 11:58:19;;;;;;;2.53;1.00;;;18.20;95.90;;;;;;4956518;29;20393;-37
2023/10/15 12:00:48;;;;;;;2.03;0.90;;;18.20;95.90;;;;;;4956468;29;20032;-37
2023/10/15 12:03:16;;;;;;;1.77;0.70;;;18.20;95.90;;;;;;4956547;29;20038;-38
2023/10/15 12:05:45;;;;;;;1.98;0.70;;;18.10;95.90;;;;;;4956354;29;20023;-37
2023/10/15 12:08:15;;;;;;;2.03;0.63;;;18.10;96.00;;;;;;4956360;29;20039;-37
2023/10/15 12:10:42;;;;;;;4.07;0.90;;;18.10;96.40;;;;;;4956333;29;20505;-39
2023/10/15 12:13:12;;;;;;;2.13;0.63;;;18.10;96.10;;;;;;4956283;29;20031;-40
2023/10/15 12:15:38;;;;;;;1.90;0.80;;;18.10;96.10;;;;;;4956164;29;20026;-42
2023/10/15 12:18:04;;;;;;;1.27;0.68;;;18.10;96.10;;;;;;4956005;29;20023;-38
2023/10/15 12:20:30;;;;;;;1.58;0.60;;;18.10;96.10;;;;;;4956368;29;20062;-38
2023/10/15 12:22:56;;;;;;;1.83;0.80;;;18.10;96.10;;;;;;4938909;29;20567;-38
2023/10/15 12:25:22;;;;;;;1.08;0.73;;;18.10;96.10;;;;;;4956016;29;20058;-39
2023/10/15 12:27:47;;;;;;;3.08;0.75;;;18.10;96.20;;;;;;4956066;29;20110;-37
2023/10/15 12:30:28;;;;;;;2.33;0.63;;;18.10;96.20;;;;;;4955963;29;20031;-37
2023/10/15 12:32:54;;;;;;;2.65;0.70;;;18.10;96.20;;;;;;4939141;29;20449;-38
2023/10/15 12:35:21;;;;;;;1.73;0.80;;;18.10;96.30;;;;;;4957000;29;20016;-37
2023/10/15 12:37:48;;;;;;;1.55;0.70;;;18.20;96.30;;;;;;4956924;29;20019;-37
2023/10/15 12:40:21;;;;;;;1.70;0.70;;;18.20;96.30;;;;;;4956637;29;20118;-37
2023/10/15 12:42:47;;;;;;;2.03;0.77;;;18.20;96.30;;;;;;4955940;29;20027;-37
2023/10/15 12:45:13;;;;;;;1.55;0.50;;;18.20;96.30;;;;;;4955652;29;20487;-37
2023/10/15 12:47:39;;;;;;;2.40;0.77;;;18.20;96.30;;;;;;4955597;29;20027;-37
2023/10/15 12:50:14;;;;;;;1.65;0.50;;;18.30;96.30;;;;;;4955579;29;20556;-37
2023/10/15 12:52:43;;;;;;;1.40;0.80;;;18.30;96.30;;;;;;4955663;29;20033;-37
2023/10/15 12:55:08;;;;;;;3.50;1.15;;;18.30;96.30;;;;;;4938690;29;20504;-36
2023/10/15 12:57:36;;;;;;;4.50;0.90;;;18.20;93.20;;;;;;4955334;29;20062;-37
2023/10/15 13:00:11;;;;;;;3.83;1.17;;;18.00;93.30;;;;;;4937938;29;20106;-36
2023/10/15 13:02:37;;;;;;;3.08;0.90;;;18.00;93.80;;;;;;4955525;29;20028;-37
2023/10/15 13:05:03;;;;;;;2.45;1.00;;;18.00;94.00;;;;;;4955346;29;20098;-37